sensor_id;sensor_type;location;lat;lon;timestamp;pressure;altitude;pressure_sealevel;temperature;humidity
72370;BME280;60343;-32.030;115.880;2023-02-01T00:02:02;101560.38;;;23.93;43.00
72370;BME280;60343;-32.030;115.880;2023-02-01T00:04:38;101567.88;;;24.26;42.57
72370;BME280;60343;-32.030;115.880;2023-02-01T00:07:19;101563.31;;;24.43;41.72
72370;BME280;60343;-32.030;115.880;2023-02-01T00:09:54;101568.47;;;24.56;41.58
72370;BME280;60343;-32.030;115.880;2023-02-01T00:12:31;101564.31;;;24.54;41.52
72370;BME280;60343;-32.030;115.880;2023-02-01T00:15:08;101569.78;;;24.54;41.51
72370;BME280;60343;-32.030;115.880;2023-02-01T00:17:43;101575.50;;;24.97;41.03
72370;BME280;60343;-32.030;115.880;2023-02-01T00:20:19;101574.56;;;25.25;40.21
72370;BME280;60343;-32.030;115.880;2023-02-01T00:23:00;101587.47;;;25.25;40.10
72370;BME280;60343;-32.030;115.880;2023-02-01T00:25:36;101584.78;;;25.30;40.46
72370;BME280;60343;-32.030;115.880;2023-02-01T00:28:11;101588.66;;;25.50;40.01
72370;BME280;60343;-32.030;115.880;2023-02-01T00:30:47;101591.75;;;25.37;40.17
72370;BME280;60343;-32.030;115.880;2023-02-01T00:33:31;101582.84;;;25.63;40.00
72370;BME280;60343;-32.030;115.880;2023-02-01T00:36:08;101584.81;;;25.68;39.80
72370;BME280;60343;-32.030;115.880;2023-02-01T00:38:49;101587.25;;;25.48;39.77
72370;BME280;60343;-32.030;115.880;2023-02-01T00:41:25;101581.97;;;25.80;40.10
72370;BME280;60343;-32.030;115.880;2023-02-01T00:44:01;101578.84;;;25.93;39.45
72370;BME280;60343;-32.030;115.880;2023-02-01T00:46:36;101591.16;;;25.69;39.89
72370;BME280;60343;-32.030;115.880;2023-02-01T00:49:12;101582.47;;;25.77;39.64
72370;BME280;60343;-32.030;115.880;2023-02-01T00:51:50;101578.66;;;25.78;39.67
72370;BME280;60343;-32.030;115.880;2023-02-01T00:54:31;101583.59;;;25.81;39.68
72370;BME280;60343;-32.030;115.880;2023-02-01T00:57:07;101586.88;;;25.78;40.28
72370;BME280;60343;-32.030;115.880;2023-02-01T00:59:43;101592.09;;;26.01;39.76
72370;BME280;60343;-32.030;115.880;2023-02-01T01:02:18;101578.44;;;26.06;39.55
72370;BME280;60343;-32.030;115.880;2023-02-01T01:04:54;101580.81;;;26.19;39.51
72370;BME280;60343;-32.030;115.880;2023-02-01T01:07:29;101570.72;;;26.52;39.04
72370;BME280;60343;-32.030;115.880;2023-02-01T01:10:11;101571.56;;;26.79;38.25
72370;BME280;60343;-32.030;115.880;2023-02-01T01:12:49;101573.22;;;26.80;38.29
72370;BME280;60343;-32.030;115.880;2023-02-01T01:15:24;101567.19;;;26.83;38.47
72370;BME280;60343;-32.030;115.880;2023-02-01T01:18:00;101579.09;;;26.88;38.35
72370;BME280;60343;-32.030;115.880;2023-02-01T01:20:37;101569.91;;;27.10;37.95
72370;BME280;60343;-32.030;115.880;2023-02-01T01:23:12;101560.88;;;27.14;37.55
72370;BME280;60343;-32.030;115.880;2023-02-01T01:25:54;101564.31;;;27.37;37.60
72370;BME280;60343;-32.030;115.880;2023-02-01T01:28:29;101562.91;;;27.71;36.97
72370;BME280;60343;-32.030;115.880;2023-02-01T01:31:08;101564.41;;;28.04;36.49
72370;BME280;60343;-32.030;115.880;2023-02-01T01:33:43;101560.47;;;27.85;36.21
72370;BME280;60343;-32.030;115.880;2023-02-01T01:36:19;101560.19;;;27.76;36.13
72370;BME280;60343;-32.030;115.880;2023-02-01T01:38:55;101557.44;;;27.81;36.81
72370;BME280;60343;-32.030;115.880;2023-02-01T01:41:37;101562.34;;;27.69;36.39
72370;BME280;60343;-32.030;115.880;2023-02-01T01:47:16;101563.03;;;28.01;36.48
72370;BME280;60343;-32.030;115.880;2023-02-01T01:49:51;101558.69;;;28.15;36.60
72370;BME280;60343;-32.030;115.880;2023-02-01T01:52:27;101561.94;;;28.07;35.77
72370;BME280;60343;-32.030;115.880;2023-02-01T01:55:03;101553.72;;;28.17;36.36
72370;BME280;60343;-32.030;115.880;2023-02-01T01:57:48;101551.03;;;28.43;35.54
72370;BME280;60343;-32.030;115.880;2023-02-01T02:00:25;101557.16;;;28.75;35.08
72370;BME280;60343;-32.030;115.880;2023-02-01T02:03:07;101541.44;;;29.16;35.13
72370;BME280;60343;-32.030;115.880;2023-02-01T02:05:45;101548.59;;;29.32;34.20
72370;BME280;60343;-32.030;115.880;2023-02-01T02:08:22;101538.69;;;29.01;34.65
72370;BME280;60343;-32.030;115.880;2023-02-01T02:10:58;101545.56;;;28.98;34.91
72370;BME280;60343;-32.030;115.880;2023-02-01T02:13:42;101543.38;;;28.80;34.64
72370;BME280;60343;-32.030;115.880;2023-02-01T02:16:32;101539.50;;;28.71;35.03
72370;BME280;60343;-32.030;115.880;2023-02-01T02:19:40;101533.47;;;28.79;35.36
72370;BME280;60343;-32.030;115.880;2023-02-01T02:26:02;101527.66;;;29.06;35.08
72370;BME280;60343;-32.030;115.880;2023-02-01T02:35:03;101517.44;;;29.17;34.18
72370;BME280;60343;-32.030;115.880;2023-02-01T02:37:45;101523.19;;;29.35;34.18
72370;BME280;60343;-32.030;115.880;2023-02-01T02:40:26;101505.22;;;29.48;34.31
72370;BME280;60343;-32.030;115.880;2023-02-01T02:43:08;101523.13;;;29.61;33.89
72370;BME280;60343;-32.030;115.880;2023-02-01T02:45:58;101510.91;;;29.77;34.00
72370;BME280;60343;-32.030;115.880;2023-02-01T02:49:02;101503.03;;;29.40;34.04
72370;BME280;60343;-32.030;115.880;2023-02-01T02:51:49;101511.28;;;29.55;33.72
72370;BME280;60343;-32.030;115.880;2023-02-01T02:54:36;101503.97;;;29.84;34.17
72370;BME280;60343;-32.030;115.880;2023-02-01T02:57:26;101497.88;;;29.93;33.77
72370;BME280;60343;-32.030;115.880;2023-02-01T03:00:14;101496.16;;;30.07;33.72
72370;BME280;60343;-32.030;115.880;2023-02-01T03:02:58;101501.06;;;30.15;33.69
72370;BME280;60343;-32.030;115.880;2023-02-01T03:05:44;101496.34;;;30.15;33.05
72370;BME280;60343;-32.030;115.880;2023-02-01T03:08:27;101487.16;;;30.25;32.98
72370;BME280;60343;-32.030;115.880;2023-02-01T03:11:04;101488.78;;;30.31;33.04
72370;BME280;60343;-32.030;115.880;2023-02-01T03:13:44;101479.31;;;30.42;32.69
72370;BME280;60343;-32.030;115.880;2023-02-01T03:16:18;101467.25;;;30.28;32.68
72370;BME280;60343;-32.030;115.880;2023-02-01T03:19:00;101471.50;;;30.54;33.21
72370;BME280;60343;-32.030;115.880;2023-02-01T03:21:39;101480.53;;;30.65;32.55
72370;BME280;60343;-32.030;115.880;2023-02-01T03:24:24;101468.66;;;30.93;32.52
72370;BME280;60343;-32.030;115.880;2023-02-01T03:27:04;101463.50;;;30.82;32.70
72370;BME280;60343;-32.030;115.880;2023-02-01T03:29:44;101458.34;;;30.99;32.23
72370;BME280;60343;-32.030;115.880;2023-02-01T03:32:21;101456.75;;;30.93;32.04
72370;BME280;60343;-32.030;115.880;2023-02-01T03:35:18;101462.28;;;30.64;32.04
72370;BME280;60343;-32.030;115.880;2023-02-01T03:38:01;101452.28;;;30.73;32.72
72370;BME280;60343;-32.030;115.880;2023-02-01T03:40:43;101445.69;;;30.93;32.63
72370;BME280;60343;-32.030;115.880;2023-02-01T03:43:21;101435.53;;;31.36;31.79
72370;BME280;60343;-32.030;115.880;2023-02-01T03:46:01;101439.31;;;31.21;32.29
72370;BME280;60343;-32.030;115.880;2023-02-01T03:48:40;101432.69;;;31.41;32.09
72370;BME280;60343;-32.030;115.880;2023-02-01T03:51:19;101422.53;;;31.55;31.21
72370;BME280;60343;-32.030;115.880;2023-02-01T03:53:57;101426.72;;;31.58;31.70
72370;BME280;60343;-32.030;115.880;2023-02-01T03:56:43;101427.06;;;31.70;32.03
72370;BME280;60343;-32.030;115.880;2023-02-01T03:59:20;101428.22;;;31.87;30.85
72370;BME280;60343;-32.030;115.880;2023-02-01T04:01:57;101416.06;;;32.02;30.92
72370;BME280;60343;-32.030;115.880;2023-02-01T04:04:34;101410.44;;;32.26;30.32
72370;BME280;60343;-32.030;115.880;2023-02-01T04:07:10;101423.53;;;32.39;29.97
72370;BME280;60343;-32.030;115.880;2023-02-01T04:09:47;101404.78;;;32.17;30.03
72370;BME280;60343;-32.030;115.880;2023-02-01T04:12:30;101395.94;;;32.15;30.20
72370;BME280;60343;-32.030;115.880;2023-02-01T04:15:07;101402.75;;;32.23;30.72
72370;BME280;60343;-32.030;115.880;2023-02-01T04:17:43;101387.44;;;32.25;30.22
72370;BME280;60343;-32.030;115.880;2023-02-01T04:20:20;101394.19;;;32.52;30.54
72370;BME280;60343;-32.030;115.880;2023-02-01T04:22:56;101377.34;;;32.94;29.69
72370;BME280;60343;-32.030;115.880;2023-02-01T04:25:33;101387.19;;;33.14;29.48
72370;BME280;60343;-32.030;115.880;2023-02-01T04:28:17;101375.06;;;33.24;28.86
72370;BME280;60343;-32.030;115.880;2023-02-01T04:30:55;101370.13;;;33.20;28.49
72370;BME280;60343;-32.030;115.880;2023-02-01T04:33:31;101372.19;;;32.88;29.36
72370;BME280;60343;-32.030;115.880;2023-02-01T04:36:08;101371.66;;;33.13;29.41
72370;BME280;60343;-32.030;115.880;2023-02-01T04:38:48;101361.75;;;33.48;27.82
72370;BME280;60343;-32.030;115.880;2023-02-01T04:41:24;101360.19;;;33.55;29.91
72370;BME280;60343;-32.030;115.880;2023-02-01T04:44:14;101356.47;;;33.74;29.19
72370;BME280;60343;-32.030;115.880;2023-02-01T04:46:51;101359.00;;;33.84;27.95
72370;BME280;60343;-32.030;115.880;2023-02-01T04:49:28;101356.59;;;33.91;28.30
72370;BME280;60343;-32.030;115.880;2023-02-01T04:52:04;101353.41;;;34.06;28.10
72370;BME280;60343;-32.030;115.880;2023-02-01T04:54:41;101359.25;;;33.96;27.98
72370;BME280;60343;-32.030;115.880;2023-02-01T04:57:17;101353.09;;;33.85;27.76
72370;BME280;60343;-32.030;115.880;2023-02-01T05:00:00;101342.94;;;34.03;27.98
72370;BME280;60343;-32.030;115.880;2023-02-01T05:02:37;101347.84;;;34.20;27.50
72370;BME280;60343;-32.030;115.880;2023-02-01T05:05:13;101347.19;;;34.23;27.90
72370;BME280;60343;-32.030;115.880;2023-02-01T05:07:49;101342.28;;;34.51;27.73
72370;BME280;60343;-32.030;115.880;2023-02-01T05:10:25;101322.59;;;34.69;26.97
72370;BME280;60343;-32.030;115.880;2023-02-01T05:13:01;101329.81;;;34.70;26.55
72370;BME280;60343;-32.030;115.880;2023-02-01T05:15:53;101326.50;;;34.68;26.73
72370;BME280;60343;-32.030;115.880;2023-02-01T05:18:29;101317.63;;;34.66;27.16
72370;BME280;60343;-32.030;115.880;2023-02-01T05:21:05;101316.69;;;34.71;27.38
72370;BME280;60343;-32.030;115.880;2023-02-01T05:23:40;101318.41;;;35.06;27.30
72370;BME280;60343;-32.030;115.880;2023-02-01T05:26:24;101316.22;;;35.34;26.08
72370;BME280;60343;-32.030;115.880;2023-02-01T05:28:59;101305.72;;;35.31;26.98
72370;BME280;60343;-32.030;115.880;2023-02-01T05:31:41;101298.19;;;35.57;26.63
72370;BME280;60343;-32.030;115.880;2023-02-01T05:34:16;101307.69;;;35.56;26.08
72370;BME280;60343;-32.030;115.880;2023-02-01T05:36:52;101297.38;;;35.40;25.66
72370;BME280;60343;-32.030;115.880;2023-02-01T05:39:27;101290.72;;;34.93;26.70
72370;BME280;60343;-32.030;115.880;2023-02-01T05:42:03;101294.25;;;35.24;26.59
72370;BME280;60343;-32.030;115.880;2023-02-01T05:44:38;101285.56;;;35.43;26.87
72370;BME280;60343;-32.030;115.880;2023-02-01T05:47:19;101280.34;;;35.50;25.72
72370;BME280;60343;-32.030;115.880;2023-02-01T05:49:55;101277.38;;;35.29;26.20
72370;BME280;60343;-32.030;115.880;2023-02-01T05:52:30;101294.56;;;35.83;26.41
72370;BME280;60343;-32.030;115.880;2023-02-01T05:55:07;101280.66;;;35.65;25.48
72370;BME280;60343;-32.030;115.880;2023-02-01T05:57:48;101280.81;;;35.52;26.19
72370;BME280;60343;-32.030;115.880;2023-02-01T06:00:24;101284.84;;;35.03;26.19
72370;BME280;60343;-32.030;115.880;2023-02-01T06:03:06;101282.25;;;35.15;26.70
72370;BME280;60343;-32.030;115.880;2023-02-01T06:05:43;101269.69;;;35.60;26.38
72370;BME280;60343;-32.030;115.880;2023-02-01T06:08:19;101277.69;;;35.62;25.93
72370;BME280;60343;-32.030;115.880;2023-02-01T06:10:59;101272.47;;;35.60;25.39
72370;BME280;60343;-32.030;115.880;2023-02-01T06:13:35;101260.00;;;35.58;25.98
72370;BME280;60343;-32.030;115.880;2023-02-01T06:16:10;101265.44;;;35.20;25.73
72370;BME280;60343;-32.030;115.880;2023-02-01T06:18:52;101264.72;;;35.14;26.05
72370;BME280;60343;-32.030;115.880;2023-02-01T06:21:27;101257.72;;;35.34;25.91
72370;BME280;60343;-32.030;115.880;2023-02-01T06:24:03;101253.13;;;35.38;25.93
72370;BME280;60343;-32.030;115.880;2023-02-01T06:26:38;101246.41;;;35.48;25.86
72370;BME280;60343;-32.030;115.880;2023-02-01T06:29:14;101253.78;;;35.52;26.59
72370;BME280;60343;-32.030;115.880;2023-02-01T06:31:49;101249.88;;;35.70;25.84
72370;BME280;60343;-32.030;115.880;2023-02-01T06:34:31;101249.50;;;35.89;25.57
72370;BME280;60343;-32.030;115.880;2023-02-01T06:37:10;101250.72;;;36.09;25.50
72370;BME280;60343;-32.030;115.880;2023-02-01T06:39:45;101247.56;;;36.28;24.75
72370;BME280;60343;-32.030;115.880;2023-02-01T06:42:21;101239.66;;;36.38;24.79
72370;BME280;60343;-32.030;115.880;2023-02-01T06:44:56;101243.38;;;36.51;24.68
72370;BME280;60343;-32.030;115.880;2023-02-01T06:47:31;101239.78;;;36.42;24.25
72370;BME280;60343;-32.030;115.880;2023-02-01T06:50:13;101231.47;;;36.33;24.22
72370;BME280;60343;-32.030;115.880;2023-02-01T06:52:51;101230.69;;;36.24;24.63
72370;BME280;60343;-32.030;115.880;2023-02-01T06:55:29;101235.25;;;36.29;25.17
72370;BME280;60343;-32.030;115.880;2023-02-01T06:58:05;101225.06;;;36.33;24.56
72370;BME280;60343;-32.030;115.880;2023-02-01T07:00:40;101222.63;;;36.31;24.30
72370;BME280;60343;-32.030;115.880;2023-02-01T07:03:16;101213.75;;;35.91;24.97
72370;BME280;60343;-32.030;115.880;2023-02-01T07:06:03;101211.56;;;35.97;24.92
72370;BME280;60343;-32.030;115.880;2023-02-01T07:08:37;101212.94;;;35.91;25.14
72370;BME280;60343;-32.030;115.880;2023-02-01T07:11:14;101218.59;;;36.03;25.40
72370;BME280;60343;-32.030;115.880;2023-02-01T07:13:52;101213.41;;;36.39;25.59
72370;BME280;60343;-32.030;115.880;2023-02-01T07:16:28;101213.78;;;36.29;24.37
72370;BME280;60343;-32.030;115.880;2023-02-01T07:19:04;101200.81;;;36.63;24.74
72370;BME280;60343;-32.030;115.880;2023-02-01T07:21:45;101207.03;;;36.60;23.93
72370;BME280;60343;-32.030;115.880;2023-02-01T07:24:20;101202.81;;;36.53;23.70
72370;BME280;60343;-32.030;115.880;2023-02-01T07:26:56;101196.59;;;36.48;23.98
72370;BME280;60343;-32.030;115.880;2023-02-01T07:29:31;101197.47;;;36.69;23.44
72370;BME280;60343;-32.030;115.880;2023-02-01T07:32:07;101200.50;;;36.55;23.57
72370;BME280;60343;-32.030;115.880;2023-02-01T07:34:45;101200.28;;;36.69;23.64
72370;BME280;60343;-32.030;115.880;2023-02-01T07:37:27;101187.28;;;36.73;23.73
72370;BME280;60343;-32.030;115.880;2023-02-01T07:40:02;101186.81;;;36.92;23.82
72370;BME280;60343;-32.030;115.880;2023-02-01T07:42:39;101184.50;;;36.94;23.20
72370;BME280;60343;-32.030;115.880;2023-02-01T07:45:15;101170.31;;;36.99;22.78
72370;BME280;60343;-32.030;115.880;2023-02-01T07:47:53;101169.63;;;37.23;23.03
72370;BME280;60343;-32.030;115.880;2023-02-01T07:50:29;101167.44;;;37.28;22.57
72370;BME280;60343;-32.030;115.880;2023-02-01T07:53:10;101169.94;;;37.09;22.94
72370;BME280;60343;-32.030;115.880;2023-02-01T07:55:45;101163.00;;;37.15;22.53
72370;BME280;60343;-32.030;115.880;2023-02-01T07:58:21;101164.50;;;36.92;23.10
72370;BME280;60343;-32.030;115.880;2023-02-01T08:00:58;101166.84;;;36.61;23.12
72370;BME280;60343;-32.030;115.880;2023-02-01T08:03:41;101158.72;;;36.09;23.51
72370;BME280;60343;-32.030;115.880;2023-02-01T08:06:17;101158.97;;;35.87;24.37
72370;BME280;60343;-32.030;115.880;2023-02-01T08:08:59;101157.25;;;35.74;24.06
72370;BME280;60343;-32.030;115.880;2023-02-01T08:11:35;101147.75;;;35.57;24.04
72370;BME280;60343;-32.030;115.880;2023-02-01T08:14:12;101152.44;;;35.19;24.75
72370;BME280;60343;-32.030;115.880;2023-02-01T08:16:51;101157.31;;;35.05;24.52
72370;BME280;60343;-32.030;115.880;2023-02-01T08:19:27;101148.81;;;35.10;24.63
72370;BME280;60343;-32.030;115.880;2023-02-01T08:22:02;101155.66;;;34.86;25.05
72370;BME280;60343;-32.030;115.880;2023-02-01T08:24:47;101146.81;;;34.76;25.17
72370;BME280;60343;-32.030;115.880;2023-02-01T08:27:29;101153.22;;;34.76;25.17
72370;BME280;60343;-32.030;115.880;2023-02-01T08:30:08;101140.22;;;34.46;24.97
72370;BME280;60343;-32.030;115.880;2023-02-01T08:32:44;101141.34;;;34.36;25.40
72370;BME280;60343;-32.030;115.880;2023-02-01T08:35:19;101143.47;;;34.31;25.48
72370;BME280;60343;-32.030;115.880;2023-02-01T08:37:55;101142.66;;;34.30;25.77
72370;BME280;60343;-32.030;115.880;2023-02-01T08:40:36;101147.31;;;34.13;25.37
72370;BME280;60343;-32.030;115.880;2023-02-01T08:43:11;101140.06;;;33.94;25.72
72370;BME280;60343;-32.030;115.880;2023-02-01T08:45:47;101136.69;;;33.75;26.04
72370;BME280;60343;-32.030;115.880;2023-02-01T08:48:22;101135.69;;;33.71;25.92
72370;BME280;60343;-32.030;115.880;2023-02-01T08:51:00;101126.22;;;33.72;25.79
72370;BME280;60343;-32.030;115.880;2023-02-01T08:53:37;101129.41;;;33.66;25.66
72370;BME280;60343;-32.030;115.880;2023-02-01T08:56:20;101123.78;;;33.48;26.31
72370;BME280;60343;-32.030;115.880;2023-02-01T08:58:55;101137.84;;;33.52;26.49
72370;BME280;60343;-32.030;115.880;2023-02-01T09:01:31;101135.94;;;33.61;25.99
72370;BME280;60343;-32.030;115.880;2023-02-01T09:04:06;101139.47;;;33.75;25.83
72370;BME280;60343;-32.030;115.880;2023-02-01T09:06:42;101145.16;;;33.70;25.70
72370;BME280;60343;-32.030;115.880;2023-02-01T09:09:17;101138.03;;;33.55;25.79
72370;BME280;60343;-32.030;115.880;2023-02-01T09:12:04;101140.28;;;33.45;26.30
72370;BME280;60343;-32.030;115.880;2023-02-01T09:14:39;101138.25;;;33.37;25.54
72370;BME280;60343;-32.030;115.880;2023-02-01T09:17:15;101133.69;;;33.41;25.80
72370;BME280;60343;-32.030;115.880;2023-02-01T09:19:50;101136.69;;;33.22;25.89
72370;BME280;60343;-32.030;115.880;2023-02-01T09:22:26;101131.66;;;33.24;26.07
72370;BME280;60343;-32.030;115.880;2023-02-01T09:25:01;101141.72;;;33.20;26.21
72370;BME280;60343;-32.030;115.880;2023-02-01T09:27:43;101135.88;;;33.22;25.56
72370;BME280;60343;-32.030;115.880;2023-02-01T09:30:18;101136.25;;;33.15;25.89
72370;BME280;60343;-32.030;115.880;2023-02-01T09:32:54;101128.88;;;33.10;25.96
72370;BME280;60343;-32.030;115.880;2023-02-01T09:35:29;101139.38;;;33.13;26.14
72370;BME280;60343;-32.030;115.880;2023-02-01T09:38:05;101133.44;;;33.06;26.18
72370;BME280;60343;-32.030;115.880;2023-02-01T09:40:43;101143.84;;;33.01;26.21
72370;BME280;60343;-32.030;115.880;2023-02-01T09:43:37;101145.31;;;32.98;26.25
72370;BME280;60343;-32.030;115.880;2023-02-01T09:46:24;101141.00;;;32.92;25.87
72370;BME280;60343;-32.030;115.880;2023-02-01T09:49:03;101150.88;;;32.85;25.72
72370;BME280;60343;-32.030;115.880;2023-02-01T09:51:43;101148.66;;;32.73;26.09
72370;BME280;60343;-32.030;115.880;2023-02-01T09:54:22;101147.78;;;32.64;26.07
72370;BME280;60343;-32.030;115.880;2023-02-01T09:57:03;101154.41;;;32.63;25.97
72370;BME280;60343;-32.030;115.880;2023-02-01T09:59:54;101154.00;;;32.56;26.46
72370;BME280;60343;-32.030;115.880;2023-02-01T10:02:41;101161.63;;;32.50;26.03
72370;BME280;60343;-32.030;115.880;2023-02-01T10:05:49;101156.63;;;32.39;26.25
72370;BME280;60343;-32.030;115.880;2023-02-01T10:08:37;101169.66;;;32.38;26.37
72370;BME280;60343;-32.030;115.880;2023-02-01T10:11:26;101176.00;;;32.25;26.34
72370;BME280;60343;-32.030;115.880;2023-02-01T10:14:29;101180.44;;;32.12;26.89
72370;BME280;60343;-32.030;115.880;2023-02-01T10:17:16;101177.22;;;32.05;26.72
72370;BME280;60343;-32.030;115.880;2023-02-01T10:20:04;101180.59;;;32.02;27.06
72370;BME280;60343;-32.030;115.880;2023-02-01T10:22:45;101183.97;;;31.99;26.98
72370;BME280;60343;-32.030;115.880;2023-02-01T10:25:26;101185.81;;;31.90;27.17
72370;BME280;60343;-32.030;115.880;2023-02-01T10:28:04;101191.13;;;31.73;27.14
72370;BME280;60343;-32.030;115.880;2023-02-01T10:30:44;101193.91;;;31.73;27.27
72370;BME280;60343;-32.030;115.880;2023-02-01T10:33:32;101196.03;;;31.62;27.24
72370;BME280;60343;-32.030;115.880;2023-02-01T10:36:16;101201.50;;;31.48;27.68
72370;BME280;60343;-32.030;115.880;2023-02-01T10:38:55;101208.00;;;31.39;27.50
72370;BME280;60343;-32.030;115.880;2023-02-01T10:41:34;101214.50;;;31.29;27.90
72370;BME280;60343;-32.030;115.880;2023-02-01T10:44:14;101222.91;;;31.24;27.77
72370;BME280;60343;-32.030;115.880;2023-02-01T10:46:50;101226.13;;;31.13;28.27
72370;BME280;60343;-32.030;115.880;2023-02-01T10:49:37;101231.25;;;31.00;28.04
72370;BME280;60343;-32.030;115.880;2023-02-01T10:52:16;101235.06;;;30.86;28.11
72370;BME280;60343;-32.030;115.880;2023-02-01T10:54:52;101242.66;;;30.75;28.35
72370;BME280;60343;-32.030;115.880;2023-02-01T10:57:28;101242.78;;;30.65;28.23
72370;BME280;60343;-32.030;115.880;2023-02-01T11:00:07;101242.91;;;30.55;28.43
72370;BME280;60343;-32.030;115.880;2023-02-01T11:02:58;101252.13;;;30.45;28.88
72370;BME280;60343;-32.030;115.880;2023-02-01T11:05:55;101251.59;;;30.43;28.55
72370;BME280;60343;-32.030;115.880;2023-02-01T11:08:31;101257.47;;;30.37;29.02
72370;BME280;60343;-32.030;115.880;2023-02-01T11:11:06;101268.09;;;30.24;29.12
72370;BME280;60343;-32.030;115.880;2023-02-01T11:13:43;101262.56;;;30.24;29.01
72370;BME280;60343;-32.030;115.880;2023-02-01T11:16:19;101275.19;;;30.07;29.06
72370;BME280;60343;-32.030;115.880;2023-02-01T11:18:55;101281.28;;;30.04;29.38
72370;BME280;60343;-32.030;115.880;2023-02-01T11:21:37;101290.34;;;30.09;28.81
72370;BME280;60343;-32.030;115.880;2023-02-01T11:24:21;101289.88;;;30.02;29.39
72370;BME280;60343;-32.030;115.880;2023-02-01T11:26:59;101294.13;;;29.90;29.55
72370;BME280;60343;-32.030;115.880;2023-02-01T11:29:38;101310.97;;;29.83;29.36
72370;BME280;60343;-32.030;115.880;2023-02-01T11:32:15;101312.97;;;29.77;29.33
72370;BME280;60343;-32.030;115.880;2023-02-01T11:34:54;101327.63;;;29.73;29.65
72370;BME280;60343;-32.030;115.880;2023-02-01T11:37:38;101332.09;;;29.64;29.79
72370;BME280;60343;-32.030;115.880;2023-02-01T11:40:27;101341.63;;;29.42;30.05
72370;BME280;60343;-32.030;115.880;2023-02-01T11:43:11;101336.47;;;29.31;30.37
72370;BME280;60343;-32.030;115.880;2023-02-01T11:45:58;101344.75;;;29.31;30.16
72370;BME280;60343;-32.030;115.880;2023-02-01T11:48:35;101345.25;;;29.33;29.99
72370;BME280;60343;-32.030;115.880;2023-02-01T11:51:24;101353.25;;;29.29;30.45
72370;BME280;60343;-32.030;115.880;2023-02-01T11:54:29;101354.38;;;29.23;29.97
72370;BME280;60343;-32.030;115.880;2023-02-01T11:57:20;101347.53;;;29.16;30.12
72370;BME280;60343;-32.030;115.880;2023-02-01T12:00:16;101361.34;;;29.11;30.17
72370;BME280;60343;-32.030;115.880;2023-02-01T12:06:11;101379.03;;;29.05;30.13
72370;BME280;60343;-32.030;115.880;2023-02-01T12:09:05;101376.06;;;28.91;30.58
72370;BME280;60343;-32.030;115.880;2023-02-01T12:11:57;101379.66;;;28.86;30.61
72370;BME280;60343;-32.030;115.880;2023-02-01T12:14:47;101390.13;;;28.74;30.84
72370;BME280;60343;-32.030;115.880;2023-02-01T12:17:48;101390.69;;;28.71;30.66
72370;BME280;60343;-32.030;115.880;2023-02-01T12:20:51;101394.81;;;28.74;30.51
72370;BME280;60343;-32.030;115.880;2023-02-01T12:23:43;101386.81;;;28.62;30.87
72370;BME280;60343;-32.030;115.880;2023-02-01T12:26:43;101408.59;;;28.64;30.78
72370;BME280;60343;-32.030;115.880;2023-02-01T12:32:40;101415.22;;;28.47;31.18
72370;BME280;60343;-32.030;115.880;2023-02-01T12:35:41;101419.38;;;28.40;30.97
72370;BME280;60343;-32.030;115.880;2023-02-01T12:38:38;101420.72;;;28.37;31.04
72370;BME280;60343;-32.030;115.880;2023-02-01T12:41:35;101427.63;;;28.30;31.17
72370;BME280;60343;-32.030;115.880;2023-02-01T12:44:20;101438.06;;;28.23;31.54
72370;BME280;60343;-32.030;115.880;2023-02-01T12:47:09;101424.59;;;28.16;30.99
72370;BME280;60343;-32.030;115.880;2023-02-01T12:49:53;101428.16;;;28.06;31.61
72370;BME280;60343;-32.030;115.880;2023-02-01T12:52:35;101439.16;;;27.96;31.72
72370;BME280;60343;-32.030;115.880;2023-02-01T12:55:20;101435.25;;;27.92;31.52
72370;BME280;60343;-32.030;115.880;2023-02-01T12:58:01;101434.16;;;27.88;31.22
72370;BME280;60343;-32.030;115.880;2023-02-01T13:00:43;101421.22;;;27.89;30.99
72370;BME280;60343;-32.030;115.880;2023-02-01T13:03:34;101436.34;;;27.81;31.25
72370;BME280;60343;-32.030;115.880;2023-02-01T13:06:15;101435.50;;;27.70;31.20
72370;BME280;60343;-32.030;115.880;2023-02-01T13:09:02;101439.06;;;27.66;31.03
72370;BME280;60343;-32.030;115.880;2023-02-01T13:11:42;101447.81;;;27.58;31.27
72370;BME280;60343;-32.030;115.880;2023-02-01T13:14:27;101444.56;;;27.61;31.21
72370;BME280;60343;-32.030;115.880;2023-02-01T13:17:12;101442.31;;;27.58;30.98
72370;BME280;60343;-32.030;115.880;2023-02-01T13:19:58;101445.59;;;27.50;31.43
72370;BME280;60343;-32.030;115.880;2023-02-01T13:22:37;101455.22;;;27.52;31.23
72370;BME280;60343;-32.030;115.880;2023-02-01T13:25:23;101447.22;;;27.46;31.26
72370;BME280;60343;-32.030;115.880;2023-02-01T13:28:05;101453.53;;;27.41;31.58
72370;BME280;60343;-32.030;115.880;2023-02-01T13:31:03;101464.47;;;27.31;31.96
72370;BME280;60343;-32.030;115.880;2023-02-01T13:33:58;101451.78;;;27.25;31.96
72370;BME280;60343;-32.030;115.880;2023-02-01T13:36:59;101455.88;;;27.22;32.22
72370;BME280;60343;-32.030;115.880;2023-02-01T13:39:59;101457.72;;;27.07;32.22
72370;BME280;60343;-32.030;115.880;2023-02-01T13:42:48;101460.44;;;27.02;32.22
72370;BME280;60343;-32.030;115.880;2023-02-01T13:45:26;101447.75;;;26.91;32.50
72370;BME280;60343;-32.030;115.880;2023-02-01T13:48:17;101453.78;;;26.93;32.40